sensor_id;sensor_type;location;lat;lon;timestamp;pressure;altitude;pressure_sealevel;temperature;humidity
63819;BME280;49970;54.976;73.248;2023-04-05T00:01:05;101725.28;;;2.90;70.88
63819;BME280;49970;54.976;73.248;2023-04-05T00:03:32;101727.91;;;2.90;70.82
63819;BME280;49970;54.976;73.248;2023-04-05T00:05:59;101727.06;;;2.89;70.95
63819;BME280;49970;54.976;73.248;2023-04-05T00:08:37;101727.97;;;2.87;70.99
63819;BME280;49970;54.976;73.248;2023-04-05T00:11:03;101729.78;;;2.82;71.24
63819;BME280;49970;54.976;73.248;2023-04-05T00:13:29;101729.81;;;2.80;71.39
63819;BME280;49970;54.976;73.248;2023-04-05T00:15:55;101730.69;;;2.79;71.32
63819;BME280;49970;54.976;73.248;2023-04-05T00:18:24;101745.44;;;2.83;71.43
63819;BME280;49970;54.976;73.248;2023-04-05T00:20:50;101736.75;;;2.83;71.31
63819;BME280;49970;54.976;73.248;2023-04-05T00:23:17;101743.72;;;2.82;71.37
63819;BME280;49970;54.976;73.248;2023-04-05T00:25:48;101749.81;;;2.83;71.36
63819;BME280;49970;54.976;73.248;2023-04-05T00:28:14;101744.63;;;2.80;71.42
63819;BME280;49970;54.976;73.248;2023-04-05T00:30:41;101740.34;;;2.75;71.42
63819;BME280;49970;54.976;73.248;2023-04-05T00:33:07;101742.16;;;2.72;71.61
63819;BME280;49970;54.976;73.248;2023-04-05T00:35:39;101742.16;;;2.70;71.75
63819;BME280;49970;54.976;73.248;2023-04-05T00:38:05;101730.91;;;2.65;71.90
63819;BME280;49970;54.976;73.248;2023-04-05T00:40:31;101738.69;;;2.70;72.00
63819;BME280;49970;54.976;73.248;2023-04-05T00:42:57;101739.59;;;2.67;72.04
63819;BME280;49970;54.976;73.248;2023-04-05T00:45:24;101737.06;;;2.63;72.12
63819;BME280;49970;54.976;73.248;2023-04-05T00:47:51;101736.22;;;2.61;72.38
63819;BME280;49970;54.976;73.248;2023-04-05T00:50:17;101737.97;;;2.59;72.62
63819;BME280;49970;54.976;73.248;2023-04-05T00:52:53;101733.75;;;2.52;72.43
63819;BME280;49970;54.976;73.248;2023-04-05T00:55:20;101725.06;;;2.49;72.72
63819;BME280;49970;54.976;73.248;2023-04-05T00:57:47;101728.56;;;2.48;72.82
63819;BME280;49970;54.976;73.248;2023-04-05T01:00:15;101733.75;;;2.52;72.78
63819;BME280;49970;54.976;73.248;2023-04-05T01:02:48;101728.53;;;2.52;72.67
63819;BME280;49970;54.976;73.248;2023-04-05T01:05:48;101727.66;;;2.51;72.81
63819;BME280;49970;54.976;73.248;2023-04-05T01:08:28;101726.78;;;2.50;72.87
63819;BME280;49970;54.976;73.248;2023-04-05T01:11:03;101729.34;;;2.54;72.95
63819;BME280;49970;54.976;73.248;2023-04-05T01:13:31;101731.94;;;2.57;72.75
63819;BME280;49970;54.976;73.248;2023-04-05T01:15:58;101723.19;;;2.59;72.82
63819;BME280;49970;54.976;73.248;2023-04-05T01:18:25;101728.34;;;2.62;72.88
63819;BME280;49970;54.976;73.248;2023-04-05T01:23:52;101728.34;;;2.64;72.99
63819;BME280;49970;54.976;73.248;2023-04-05T01:26:42;101724.81;;;2.65;73.15
63819;BME280;49970;54.976;73.248;2023-04-05T01:32:10;101733.38;;;2.74;72.74
63819;BME280;49970;54.976;73.248;2023-04-05T01:34:58;101732.47;;;2.77;72.91
63819;BME280;49970;54.976;73.248;2023-04-05T01:37:30;101732.41;;;2.82;72.85
63819;BME280;49970;54.976;73.248;2023-04-05T01:39:59;101735.75;;;2.90;72.75
63819;BME280;49970;54.976;73.248;2023-04-05T01:42:26;101727.84;;;2.94;72.61
63819;BME280;49970;54.976;73.248;2023-04-05T01:44:57;101735.47;;;3.05;72.52
63819;BME280;49970;54.976;73.248;2023-04-05T01:47:29;101734.41;;;3.17;72.11
63819;BME280;49970;54.976;73.248;2023-04-05T01:49:55;101731.66;;;3.24;72.16
63819;BME280;49970;54.976;73.248;2023-04-05T01:52:29;101735.00;;;3.33;72.17
63819;BME280;49970;54.976;73.248;2023-04-05T01:54:55;101723.50;;;3.43;72.16
63819;BME280;49970;54.976;73.248;2023-04-05T01:57:22;101726.84;;;3.49;71.64
63819;BME280;49970;54.976;73.248;2023-04-05T01:59:56;101725.84;;;3.55;71.46
63819;BME280;49970;54.976;73.248;2023-04-05T02:02:22;101734.41;;;3.65;71.09
63819;BME280;49970;54.976;73.248;2023-04-05T02:04:58;101715.91;;;3.72;70.91
63819;BME280;49970;54.976;73.248;2023-04-05T02:07:24;101720.13;;;3.80;70.85
63819;BME280;49970;54.976;73.248;2023-04-05T02:10:01;101725.09;;;3.92;70.42
63819;BME280;49970;54.976;73.248;2023-04-05T02:12:27;101719.66;;;4.01;70.17
63819;BME280;49970;54.976;73.248;2023-04-05T02:14:53;101719.50;;;4.09;69.78
63819;BME280;49970;54.976;73.248;2023-04-05T02:17:20;101714.97;;;4.17;69.32
63819;BME280;49970;54.976;73.248;2023-04-05T02:19:50;101714.78;;;4.24;69.67
63819;BME280;49970;54.976;73.248;2023-04-05T02:22:18;101714.69;;;4.29;69.44
63819;BME280;49970;54.976;73.248;2023-04-05T02:24:50;101705.78;;;4.36;69.63
63819;BME280;49970;54.976;73.248;2023-04-05T02:27:16;101703.78;;;4.47;69.36
63819;BME280;49970;54.976;73.248;2023-04-05T02:29:43;101705.34;;;4.56;68.42
63819;BME280;49970;54.976;73.248;2023-04-05T02:32:09;101713.78;;;4.67;68.69
63819;BME280;49970;54.976;73.248;2023-04-05T02:34:41;101709.19;;;4.77;67.51
63819;BME280;49970;54.976;73.248;2023-04-05T02:37:08;101688.09;;;4.80;67.80
63819;BME280;49970;54.976;73.248;2023-04-05T02:39:34;101707.91;;;4.93;67.21
63819;BME280;49970;54.976;73.248;2023-04-05T02:42:01;101706.78;;;5.04;67.68
63819;BME280;49970;54.976;73.248;2023-04-05T02:44:27;101709.81;;;5.21;66.63
63819;BME280;49970;54.976;73.248;2023-04-05T02:46:53;101698.84;;;5.38;66.38
63819;BME280;49970;54.976;73.248;2023-04-05T02:49:25;101694.13;;;5.50;66.25
63819;BME280;49970;54.976;73.248;2023-04-05T02:51:53;101694.34;;;5.72;65.69
63819;BME280;49970;54.976;73.248;2023-04-05T02:54:21;101691.06;;;5.97;64.92
63819;BME280;49970;54.976;73.248;2023-04-05T02:56:58;101701.41;;;6.03;64.00
63819;BME280;49970;54.976;73.248;2023-04-05T02:59:38;101685.53;;;6.06;64.32
63819;BME280;49970;54.976;73.248;2023-04-05T03:02:05;101681.50;;;6.22;64.26
63819;BME280;49970;54.976;73.248;2023-04-05T03:04:32;101672.19;;;6.40;63.54
63819;BME280;49970;54.976;73.248;2023-04-05T03:07:02;101687.31;;;6.60;62.19
63819;BME280;49970;54.976;73.248;2023-04-05T03:09:31;101683.34;;;6.75;62.23
63819;BME280;49970;54.976;73.248;2023-04-05T03:12:03;101681.16;;;6.88;61.43
63819;BME280;49970;54.976;73.248;2023-04-05T03:14:32;101685.25;;;6.96;61.13
63819;BME280;49970;54.976;73.248;2023-04-05T03:16:59;101691.94;;;7.07;59.99
63819;BME280;49970;54.976;73.248;2023-04-05T03:19:39;101689.75;;;7.18;59.61
63819;BME280;49970;54.976;73.248;2023-04-05T03:22:13;101687.69;;;7.28;59.70
63819;BME280;49970;54.976;73.248;2023-04-05T03:24:41;101683.03;;;7.34;59.71
63819;BME280;49970;54.976;73.248;2023-04-05T03:27:09;101691.53;;;7.42;59.30
63819;BME280;49970;54.976;73.248;2023-04-05T03:29:47;101689.97;;;7.62;58.69
63819;BME280;49970;54.976;73.248;2023-04-05T03:32:16;101683.31;;;7.75;58.21
63819;BME280;49970;54.976;73.248;2023-04-05T03:34:49;101685.84;;;7.78;57.64
63819;BME280;49970;54.976;73.248;2023-04-05T03:37:17;101681.34;;;7.80;57.78
63819;BME280;49970;54.976;73.248;2023-04-05T03:39:50;101682.84;;;7.87;57.31
63819;BME280;49970;54.976;73.248;2023-04-05T03:42:27;101675.25;;;8.02;57.37
63819;BME280;49970;54.976;73.248;2023-04-05T03:44:54;101668.09;;;8.05;56.95
63819;BME280;49970;54.976;73.248;2023-04-05T03:47:25;101675.22;;;8.03;57.75
63819;BME280;49970;54.976;73.248;2023-04-05T03:49:53;101664.47;;;8.08;57.68
63819;BME280;49970;54.976;73.248;2023-04-05T03:52:19;101674.66;;;8.17;57.77
63819;BME280;49970;54.976;73.248;2023-04-05T03:54:45;101662.09;;;8.23;57.80
63819;BME280;49970;54.976;73.248;2023-04-05T03:57:15;101662.59;;;8.33;57.12
63819;BME280;49970;54.976;73.248;2023-04-05T03:59:43;101660.72;;;8.37;56.25
63819;BME280;49970;54.976;73.248;2023-04-05T04:02:09;101666.84;;;8.37;56.95
63819;BME280;49970;54.976;73.248;2023-04-05T04:04:36;101663.06;;;8.44;56.42
63819;BME280;49970;54.976;73.248;2023-04-05T04:07:02;101649.50;;;8.52;56.20
63819;BME280;49970;54.976;73.248;2023-04-05T04:09:29;101650.88;;;8.62;56.00
63819;BME280;49970;54.976;73.248;2023-04-05T04:12:03;101652.34;;;8.69;55.30
63819;BME280;49970;54.976;73.248;2023-04-05T04:14:29;101647.66;;;8.76;56.02
63819;BME280;49970;54.976;73.248;2023-04-05T04:17:32;101640.00;;;8.90;54.85
63819;BME280;49970;54.976;73.248;2023-04-05T04:20:22;101640.78;;;8.92;54.57
63819;BME280;49970;54.976;73.248;2023-04-05T04:23:14;101626.25;;;9.03;54.07
63819;BME280;49970;54.976;73.248;2023-04-05T04:26:10;101636.56;;;9.09;53.65
63819;BME280;49970;54.976;73.248;2023-04-05T04:28:42;101631.19;;;9.10;53.55
63819;BME280;49970;54.976;73.248;2023-04-05T04:31:25;101636.22;;;9.16;53.83
63819;BME280;49970;54.976;73.248;2023-04-05T04:34:04;101633.25;;;9.24;52.86
63819;BME280;49970;54.976;73.248;2023-04-05T04:37:03;101630.09;;;9.35;53.24
63819;BME280;49970;54.976;73.248;2023-04-05T04:39:48;101629.91;;;9.39;53.14
63819;BME280;49970;54.976;73.248;2023-04-05T04:42:55;101613.19;;;9.39;52.98
63819;BME280;49970;54.976;73.248;2023-04-05T04:45:54;101625.84;;;9.51;53.03
63819;BME280;49970;54.976;73.248;2023-04-05T04:48:36;101615.25;;;9.51;53.29
63819;BME280;49970;54.976;73.248;2023-04-05T04:51:32;101613.75;;;9.64;53.42
63819;BME280;49970;54.976;73.248;2023-04-05T04:53:58;101605.69;;;9.67;53.82
63819;BME280;49970;54.976;73.248;2023-04-05T04:56:29;101613.41;;;9.72;53.26
63819;BME280;49970;54.976;73.248;2023-04-05T04:58:58;101620.91;;;9.81;52.92
63819;BME280;49970;54.976;73.248;2023-04-05T05:01:34;101618.72;;;9.91;52.17
63819;BME280;49970;54.976;73.248;2023-04-05T05:04:03;101606.38;;;9.90;52.04
63819;BME280;49970;54.976;73.248;2023-04-05T05:06:33;101612.91;;;10.02;51.97
63819;BME280;49970;54.976;73.248;2023-04-05T05:08:59;101613.16;;;10.14;51.46
63819;BME280;49970;54.976;73.248;2023-04-05T05:11:27;101605.94;;;10.18;51.61
63819;BME280;49970;54.976;73.248;2023-04-05T05:13:54;101597.91;;;10.19;51.56
63819;BME280;49970;54.976;73.248;2023-04-05T05:16:23;101603.91;;;10.23;51.76
63819;BME280;49970;54.976;73.248;2023-04-05T05:18:50;101603.66;;;10.29;51.50
63819;BME280;49970;54.976;73.248;2023-04-05T05:21:26;101606.22;;;10.31;52.22
63819;BME280;49970;54.976;73.248;2023-04-05T05:23:59;101607.94;;;10.32;51.49
63819;BME280;49970;54.976;73.248;2023-04-05T05:26:30;101611.16;;;10.38;51.97
63819;BME280;49970;54.976;73.248;2023-04-05T05:29:06;101618.78;;;10.44;52.06
63819;BME280;49970;54.976;73.248;2023-04-05T05:31:37;101607.75;;;10.54;51.90
63819;BME280;49970;54.976;73.248;2023-04-05T05:34:09;101605.72;;;10.59;51.45
63819;BME280;49970;54.976;73.248;2023-04-05T05:36:37;101595.88;;;10.61;52.42
63819;BME280;49970;54.976;73.248;2023-04-05T05:39:03;101601.81;;;10.66;52.68
63819;BME280;49970;54.976;73.248;2023-04-05T05:41:30;101599.00;;;10.69;50.91
63819;BME280;49970;54.976;73.248;2023-04-05T05:43:57;101592.06;;;10.66;51.76
63819;BME280;49970;54.976;73.248;2023-04-05T05:46:23;101586.69;;;10.68;51.81
63819;BME280;49970;54.976;73.248;2023-04-05T05:48:50;101591.91;;;10.69;51.88
63819;BME280;49970;54.976;73.248;2023-04-05T05:51:26;101590.03;;;10.71;51.39
63819;BME280;49970;54.976;73.248;2023-04-05T05:53:52;101587.06;;;10.78;51.71
63819;BME280;49970;54.976;73.248;2023-04-05T05:56:19;101580.59;;;10.83;52.28
63819;BME280;49970;54.976;73.248;2023-04-05T05:58:45;101575.91;;;10.88;51.68
63819;BME280;49970;54.976;73.248;2023-04-05T06:01:12;101574.81;;;10.92;51.18
63819;BME280;49970;54.976;73.248;2023-04-05T06:03:39;101576.38;;;10.96;51.42
63819;BME280;49970;54.976;73.248;2023-04-05T06:06:05;101576.88;;;11.03;50.83
63819;BME280;49970;54.976;73.248;2023-04-05T06:08:33;101563.81;;;11.00;50.61
63819;BME280;49970;54.976;73.248;2023-04-05T06:11:16;101562.63;;;11.06;50.90
63819;BME280;49970;54.976;73.248;2023-04-05T06:13:43;101563.22;;;11.11;50.62
63819;BME280;49970;54.976;73.248;2023-04-05T06:16:09;101560.28;;;11.17;50.41
63819;BME280;49970;54.976;73.248;2023-04-05T06:18:35;101555.81;;;11.17;50.37
63819;BME280;49970;54.976;73.248;2023-04-05T06:21:02;101557.28;;;11.23;50.24
63819;BME280;49970;54.976;73.248;2023-04-05T06:23:29;101554.38;;;11.28;51.14
63819;BME280;49970;54.976;73.248;2023-04-05T06:25:55;101548.81;;;11.32;50.71
63819;BME280;49970;54.976;73.248;2023-04-05T06:28:21;101550.19;;;11.39;50.46
63819;BME280;49970;54.976;73.248;2023-04-05T06:30:48;101537.63;;;11.43;51.14
63819;BME280;49970;54.976;73.248;2023-04-05T06:33:14;101536.53;;;11.47;50.10
63819;BME280;49970;54.976;73.248;2023-04-05T06:35:40;101541.03;;;11.45;50.74
63819;BME280;49970;54.976;73.248;2023-04-05T06:38:06;101538.06;;;11.51;51.08
63819;BME280;49970;54.976;73.248;2023-04-05T06:40:43;101533.94;;;11.61;50.79
63819;BME280;49970;54.976;73.248;2023-04-05T06:43:09;101529.84;;;11.71;49.83
63819;BME280;49970;54.976;73.248;2023-04-05T06:45:36;101531.19;;;11.79;50.24
63819;BME280;49970;54.976;73.248;2023-04-05T06:48:02;101532.75;;;11.83;50.20
63819;BME280;49970;54.976;73.248;2023-04-05T06:50:30;101528.13;;;11.86;49.99
63819;BME280;49970;54.976;73.248;2023-04-05T06:53:05;101527.22;;;11.87;50.11
63819;BME280;49970;54.976;73.248;2023-04-05T06:55:32;101523.69;;;11.87;49.32
63819;BME280;49970;54.976;73.248;2023-04-05T06:58:06;101539.53;;;11.88;49.68
63819;BME280;49970;54.976;73.248;2023-04-05T07:00:37;101516.66;;;11.86;49.64
63819;BME280;49970;54.976;73.248;2023-04-05T07:03:04;101514.78;;;11.88;49.21
63819;BME280;49970;54.976;73.248;2023-04-05T07:05:31;101512.03;;;11.89;49.23
63819;BME280;49970;54.976;73.248;2023-04-05T07:07:57;101502.19;;;11.91;49.65
63819;BME280;49970;54.976;73.248;2023-04-05T07:10:24;101502.97;;;11.93;49.66
63819;BME280;49970;54.976;73.248;2023-04-05T07:12:50;101491.38;;;11.94;49.83
63819;BME280;49970;54.976;73.248;2023-04-05T07:15:16;101500.19;;;11.95;50.32
63819;BME280;49970;54.976;73.248;2023-04-05T07:17:42;101500.88;;;11.99;50.64
63819;BME280;49970;54.976;73.248;2023-04-05T07:20:19;101502.59;;;12.00;50.53
63819;BME280;49970;54.976;73.248;2023-04-05T07:22:45;101499.88;;;12.01;50.63
63819;BME280;49970;54.976;73.248;2023-04-05T07:25:11;101491.31;;;11.96;50.81
63819;BME280;49970;54.976;73.248;2023-04-05T07:27:38;101485.31;;;11.92;50.89
63819;BME280;49970;54.976;73.248;2023-04-05T07:30:05;101484.38;;;11.93;51.24
63819;BME280;49970;54.976;73.248;2023-04-05T07:32:41;101485.06;;;11.97;51.43
63819;BME280;49970;54.976;73.248;2023-04-05T07:35:17;101485.16;;;11.95;51.04
63819;BME280;49970;54.976;73.248;2023-04-05T07:37:44;101478.97;;;11.95;51.12
63819;BME280;49970;54.976;73.248;2023-04-05T07:40:10;101474.78;;;11.91;50.75
63819;BME280;49970;54.976;73.248;2023-04-05T07:42:37;101476.56;;;11.90;51.75
63819;BME280;49970;54.976;73.248;2023-04-05T07:45:14;101464.84;;;11.94;52.12
63819;BME280;49970;54.976;73.248;2023-04-05T07:47:45;101457.53;;;11.98;52.22
63819;BME280;49970;54.976;73.248;2023-04-05T07:50:16;101461.16;;;11.97;53.00
63819;BME280;49970;54.976;73.248;2023-04-05T07:52:42;101451.28;;;11.99;53.28
63819;BME280;49970;54.976;73.248;2023-04-05T07:55:09;101437.34;;;11.95;52.97
63819;BME280;49970;54.976;73.248;2023-04-05T07:57:35;101445.22;;;11.97;53.75
63819;BME280;49970;54.976;73.248;2023-04-05T08:00:03;101446.81;;;12.00;53.72
63819;BME280;49970;54.976;73.248;2023-04-05T08:02:39;101441.88;;;11.93;52.48
63819;BME280;49970;54.976;73.248;2023-04-05T08:05:05;101445.66;;;11.89;53.28
63819;BME280;49970;54.976;73.248;2023-04-05T08:07:32;101443.00;;;11.89;53.94
63819;BME280;49970;54.976;73.248;2023-04-05T08:09:58;101447.97;;;11.95;54.05
63819;BME280;49970;54.976;73.248;2023-04-05T08:12:25;101448.63;;;11.99;53.62
63819;BME280;49970;54.976;73.248;2023-04-05T08:14:51;101439.53;;;12.03;53.77
63819;BME280;49970;54.976;73.248;2023-04-05T08:17:18;101433.94;;;12.08;54.38
63819;BME280;49970;54.976;73.248;2023-04-05T08:19:45;101425.06;;;12.09;53.95
63819;BME280;49970;54.976;73.248;2023-04-05T08:22:11;101431.97;;;12.11;55.24
63819;BME280;49970;54.976;73.248;2023-04-05T08:24:37;101423.94;;;12.13;54.97
63819;BME280;49970;54.976;73.248;2023-04-05T08:27:04;101419.38;;;12.15;55.18
63819;BME280;49970;54.976;73.248;2023-04-05T08:29:30;101417.66;;;12.14;54.63
63819;BME280;49970;54.976;73.248;2023-04-05T08:31:56;101416.81;;;12.13;55.22
63819;BME280;49970;54.976;73.248;2023-04-05T08:34:23;101422.03;;;12.15;55.63
63819;BME280;49970;54.976;73.248;2023-04-05T08:36:49;101406.25;;;12.12;55.83
63819;BME280;49970;54.976;73.248;2023-04-05T08:39:15;101415.97;;;12.13;55.79
63819;BME280;49970;54.976;73.248;2023-04-05T08:41:51;101413.38;;;12.11;55.01
63819;BME280;49970;54.976;73.248;2023-04-05T08:44:30;101410.66;;;12.13;56.06
63819;BME280;49970;54.976;73.248;2023-04-05T08:46:57;101403.44;;;12.15;56.52
63819;BME280;49970;54.976;73.248;2023-04-05T08:49:30;101407.91;;;12.14;56.48
63819;BME280;49970;54.976;73.248;2023-04-05T08:51:58;101398.97;;;12.15;56.56
63819;BME280;49970;54.976;73.248;2023-04-05T08:54:25;101391.69;;;12.19;56.08
63819;BME280;49970;54.976;73.248;2023-04-05T08:56:52;101386.94;;;12.24;55.48
63819;BME280;49970;54.976;73.248;2023-04-05T08:59:19;101387.72;;;12.26;55.50
63819;BME280;49970;54.976;73.248;2023-04-05T09:01:48;101386.75;;;12.27;53.99
63819;BME280;49970;54.976;73.248;2023-04-05T09:04:20;101376.03;;;12.29;54.36
63819;BME280;49970;54.976;73.248;2023-04-05T09:06:49;101382.97;;;12.31;54.00
63819;BME280;49970;54.976;73.248;2023-04-05T09:09:16;101368.66;;;12.34;54.25
63819;BME280;49970;54.976;73.248;2023-04-05T09:11:43;101366.16;;;12.31;53.94
63819;BME280;49970;54.976;73.248;2023-04-05T09:14:15;101370.53;;;12.32;53.47
63819;BME280;49970;54.976;73.248;2023-04-05T09:16:42;101359.81;;;12.33;53.49
63819;BME280;49970;54.976;73.248;2023-04-05T09:19:09;101357.81;;;12.37;52.81
63819;BME280;49970;54.976;73.248;2023-04-05T09:22:00;101354.31;;;12.36;52.06
63819;BME280;49970;54.976;73.248;2023-04-05T09:24:44;101354.41;;;12.35;51.80
63819;BME280;49970;54.976;73.248;2023-04-05T09:27:15;101356.97;;;12.36;52.25
63819;BME280;49970;54.976;73.248;2023-04-05T09:29:45;101350.44;;;12.42;52.24
63819;BME280;49970;54.976;73.248;2023-04-05T09:32:13;101347.56;;;12.45;49.95
63819;BME280;49970;54.976;73.248;2023-04-05T09:34:41;101345.75;;;12.45;50.02
63819;BME280;49970;54.976;73.248;2023-04-05T09:37:17;101341.41;;;12.44;50.91
63819;BME280;49970;54.976;73.248;2023-04-05T09:39:50;101337.72;;;12.47;51.48
63819;BME280;49970;54.976;73.248;2023-04-05T09:42:29;101331.53;;;12.46;52.11
63819;BME280;49970;54.976;73.248;2023-04-05T09:45:00;101332.22;;;12.50;50.93
63819;BME280;49970;54.976;73.248;2023-04-05T09:47:55;101322.31;;;12.52;52.04
63819;BME280;49970;54.976;73.248;2023-04-05T09:50:22;101324.13;;;12.52;51.11
63819;BME280;49970;54.976;73.248;2023-04-05T09:52:49;101324.13;;;12.52;52.48
63819;BME280;49970;54.976;73.248;2023-04-05T09:55:26;101315.38;;;12.50;52.95
63819;BME280;49970;54.976;73.248;2023-04-05T09:57:53;101313.69;;;12.49;53.58
63819;BME280;49970;54.976;73.248;2023-04-05T10:00:21;101311.81;;;12.51;54.06
63819;BME280;49970;54.976;73.248;2023-04-05T10:02:52;101305.72;;;12.49;54.41
63819;BME280;49970;54.976;73.248;2023-04-05T10:05:23;101306.56;;;12.49;54.15
63819;BME280;49970;54.976;73.248;2023-04-05T10:07:50;101304.84;;;12.48;54.21
63819;BME280;49970;54.976;73.248;2023-04-05T10:10:27;101303.06;;;12.49;54.36
63819;BME280;49970;54.976;73.248;2023-04-05T10:12:58;101297.06;;;12.45;54.73
63819;BME280;49970;54.976;73.248;2023-04-05T10:15:25;101296.78;;;12.50;54.95
63819;BME280;49970;54.976;73.248;2023-04-05T10:18:02;101296.69;;;12.51;55.79
63819;BME280;49970;54.976;73.248;2023-04-05T10:20:32;101296.59;;;12.53;55.14
63819;BME280;49970;54.976;73.248;2023-04-05T10:23:21;101292.13;;;12.53;54.90
63819;BME280;49970;54.976;73.248;2023-04-05T10:26:00;101284.16;;;12.53;53.80
63819;BME280;49970;54.976;73.248;2023-04-05T10:31:35;101282.34;;;12.54;52.05
63819;BME280;49970;54.976;73.248;2023-04-05T10:34:41;101280.56;;;12.54;52.50
63819;BME280;49970;54.976;73.248;2023-04-05T10:40:20;101271.44;;;12.58;52.31
63819;BME280;49970;54.976;73.248;2023-04-05T10:42:49;101269.53;;;12.60;53.07
63819;BME280;49970;54.976;73.248;2023-04-05T10:45:17;101264.09;;;12.62;53.01
63819;BME280;49970;54.976;73.248;2023-04-05T10:48:20;101261.66;;;12.59;51.85
63819;BME280;49970;54.976;73.248;2023-04-05T10:50:50;101254.63;;;12.58;53.30
63819;BME280;49970;54.976;73.248;2023-04-05T10:53:18;101254.53;;;12.59;53.38
63819;BME280;49970;54.976;73.248;2023-04-05T10:55:45;101253.69;;;12.59;53.40
63819;BME280;49970;54.976;73.248;2023-04-05T10:58:14;101258.06;;;12.60;53.77
63819;BME280;49970;54.976;73.248;2023-04-05T11:00:52;101252.94;;;12.57;53.43
63819;BME280;49970;54.976;73.248;2023-04-05T11:06:32;101249.72;;;12.52;53.47
63819;BME280;49970;54.976;73.248;2023-04-05T11:09:17;101246.28;;;12.50;53.59
63819;BME280;49970;54.976;73.248;2023-04-05T11:11:47;101246.22;;;12.51;53.92
63819;BME280;49970;54.976;73.248;2023-04-05T11:14:24;101238.31;;;12.50;54.26
63819;BME280;49970;54.976;73.248;2023-04-05T11:16:54;101233.13;;;12.48;53.50
63819;BME280;49970;54.976;73.248;2023-04-05T11:22:11;101229.06;;;12.42;54.14
63819;BME280;49970;54.976;73.248;2023-04-05T11:24:54;101228.00;;;12.45;54.74
63819;BME280;49970;54.976;73.248;2023-04-05T11:27:33;101230.66;;;12.45;54.40
63819;BME280;49970;54.976;73.248;2023-04-05T11:30:04;101228.09;;;12.43;54.85
63819;BME280;49970;54.976;73.248;2023-04-05T11:32:41;101216.50;;;12.44;54.39
63819;BME280;49970;54.976;73.248;2023-04-05T11:35:15;101213.84;;;12.44;54.60
63819;BME280;49970;54.976;73.248;2023-04-05T11:40:34;101204.19;;;12.43;54.72
63819;BME280;49970;54.976;73.248;2023-04-05T11:43:05;101199.72;;;12.44;55.00
63819;BME280;49970;54.976;73.248;2023-04-05T11:45:42;101193.56;;;12.43;55.22
63819;BME280;49970;54.976;73.248;2023-04-05T11:48:13;101193.56;;;12.43;55.27
63819;BME280;49970;54.976;73.248;2023-04-05T11:50:40;101192.59;;;12.44;54.89
63819;BME280;49970;54.976;73.248;2023-04-05T11:53:13;101187.28;;;12.44;55.02
63819;BME280;49970;54.976;73.248;2023-04-05T11:55:45;101190.78;;;12.45;55.14
63819;BME280;49970;54.976;73.248;2023-04-05T11:58:16;101181.13;;;12.44;55.12
63819;BME280;49970;54.976;73.248;2023-04-05T12:00:44;101180.16;;;12.45;55.13
63819;BME280;49970;54.976;73.248;2023-04-05T12:03:20;101179.22;;;12.46;54.96
63819;BME280;49970;54.976;73.248;2023-04-05T12:05:51;101171.34;;;12.44;55.23
63819;BME280;49970;54.976;73.248;2023-04-05T12:08:19;101168.69;;;12.44;55.45
63819;BME280;49970;54.976;73.248;2023-04-05T12:10:58;101159.00;;;12.43;55.53
63819;BME280;49970;54.976;73.248;2023-04-05T12:13:28;101166.03;;;12.44;55.88
63819;BME280;49970;54.976;73.248;2023-04-05T12:15:59;101161.69;;;12.43;55.90
63819;BME280;49970;54.976;73.248;2023-04-05T12:18:27;101160.06;;;12.41;56.06
63819;BME280;49970;54.976;73.248;2023-04-05T12:20:55;101160.34;;;12.36;56.23
63819;BME280;49970;54.976;73.248;2023-04-05T12:23:26;101161.31;;;12.35;56.63
63819;BME280;49970;54.976;73.248;2023-04-05T12:25:54;101150.81;;;12.34;56.85
63819;BME280;49970;54.976;73.248;2023-04-05T12:28:53;101148.53;;;12.28;56.71
63819;BME280;49970;54.976;73.248;2023-04-05T12:31:45;101148.81;;;12.23;56.97
63819;BME280;49970;54.976;73.248;2023-04-05T12:34:22;101149.59;;;12.25;57.32
63819;BME280;49970;54.976;73.248;2023-04-05T12:36:49;101140.97;;;12.21;57.35
63819;BME280;49970;54.976;73.248;2023-04-05T12:39:15;101126.38;;;12.14;57.28
63819;BME280;49970;54.976;73.248;2023-04-05T12:41:43;101142.00;;;12.19;58.07
63819;BME280;49970;54.976;73.248;2023-04-05T12:44:27;101133.38;;;12.15;58.00
63819;BME280;49970;54.976;73.248;2023-04-05T12:46:59;101124.97;;;12.09;58.22
63819;BME280;49970;54.976;73.248;2023-04-05T12:49:36;101127.63;;;12.09;58.64
63819;BME280;49970;54.976;73.248;2023-04-05T12:52:03;101133.13;;;12.06;58.52
63819;BME280;49970;54.976;73.248;2023-04-05T12:54:29;101129.72;;;12.04;58.77
63819;BME280;49970;54.976;73.248;2023-04-05T12:57:01;101125.34;;;12.03;59.08
63819;BME280;49970;54.976;73.248;2023-04-05T12:59:29;101129.06;;;12.00;59.10
63819;BME280;49970;54.976;73.248;2023-04-05T13:01:55;101120.34;;;11.98;59.07
63819;BME280;49970;54.976;73.248;2023-04-05T13:04:21;101116.00;;;11.97;59.59
63819;BME280;49970;54.976;73.248;2023-04-05T13:06:47;101117.88;;;11.95;59.65
63819;BME280;49970;54.976;73.248;2023-04-05T13:09:14;101113.63;;;11.92;59.63
63819;BME280;49970;54.976;73.248;2023-04-05T13:11:51;101107.66;;;11.89;60.06
63819;BME280;49970;54.976;73.248;2023-04-05T13:14:17;101103.50;;;11.85;60.21
63819;BME280;49970;54.976;73.248;2023-04-05T13:17:03;101094.84;;;11.81;60.80
63819;BME280;49970;54.976;73.248;2023-04-05T13:20:22;101091.75;;;11.75;60.84
63819;BME280;49970;54.976;73.248;2023-04-05T13:22:49;101094.59;;;11.71;60.93
63819;BME280;49970;54.976;73.248;2023-04-05T13:25:15;101095.63;;;11.69;60.96